California, Maryland
Current Conditions -  °F | °C
As of 4:29 AM on Thursday 18 Dec 2014 (Local Time) from K2W6 Reporting Station
Clear Clear  
Wind Chill: 31°   Ceiling: Unl
Heat Index: 36°   Visibility: 10mi
Dew Point: 21°   Wind: 6mph
Humidity: 56%   Direction: 290°WNW
Pressure: 30.1"   Gusts: 17mph
Location:  38.3°N, 76.52°W
Report Text: K2W6 180929Z AUTO 29005G15KT 10SM CLR 02/M06 A3010 RMK AO1
Loading
Personal Weather Stations






























Interactive Weather Map New forecast layout! Learn more

10-Day Weather Forecast

Advertisements
Track Severe Weather on mobile